sensor_id;sensor_type;location;lat;lon;timestamp;P1;durP1;ratioP1;P2;durP2;ratioP2
4202;SDS011;2115;51.038;7.006;2023-07-28T06:30:34;644.67;;;390.87;;
4202;SDS011;2115;51.038;7.006;2023-07-28T06:32:59;645.20;;;383.07;;
4202;SDS011;2115;51.038;7.006;2023-07-28T06:35:25;651.23;;;397.57;;
4202;SDS011;2115;51.038;7.006;2023-07-28T06:37:50;662.90;;;393.80;;
4202;SDS011;2115;51.038;7.006;2023-07-28T06:42:40;647.93;;;400.57;;
4202;SDS011;2115;51.038;7.006;2023-07-28T06:45:06;661.57;;;414.03;;
4202;SDS011;2115;51.038;7.006;2023-07-28T06:47:32;648.53;;;408.07;;
4202;SDS011;2115;51.038;7.006;2023-07-28T06:49:57;660.53;;;414.57;;
4202;SDS011;2115;51.038;7.006;2023-07-28T06:52:23;658.73;;;410.90;;
4202;SDS011;2115;51.038;7.006;2023-07-28T06:54:48;648.83;;;392.20;;
4202;SDS011;2115;51.038;7.006;2023-07-28T06:57:14;659.23;;;351.93;;
4202;SDS011;2115;51.038;7.006;2023-07-28T06:59:40;655.67;;;375.53;;
4202;SDS011;2115;51.038;7.006;2023-07-28T07:02:06;649.77;;;389.17;;
4202;SDS011;2115;51.038;7.006;2023-07-28T07:04:31;658.40;;;425.50;;
4202;SDS011;2115;51.038;7.006;2023-07-28T07:06:57;657.17;;;397.43;;
4202;SDS011;2115;51.038;7.006;2023-07-28T07:09:22;656.00;;;414.03;;
4202;SDS011;2115;51.038;7.006;2023-07-28T07:11:48;651.73;;;392.60;;
4202;SDS011;2115;51.038;7.006;2023-07-28T07:14:13;652.47;;;412.47;;
4202;SDS011;2115;51.038;7.006;2023-07-28T07:16:39;648.70;;;409.73;;
4202;SDS011;2115;51.038;7.006;2023-07-28T07:19:05;641.77;;;395.10;;
4202;SDS011;2115;51.038;7.006;2023-07-28T07:21:30;651.60;;;389.30;;
4202;SDS011;2115;51.038;7.006;2023-07-28T07:23:56;671.20;;;459.50;;
4202;SDS011;2115;51.038;7.006;2023-07-28T07:28:46;664.50;;;474.30;;
4202;SDS011;2115;51.038;7.006;2023-07-28T07:40:54;655.70;;;451.50;;
4202;SDS011;2115;51.038;7.006;2023-07-28T07:43:20;662.75;;;464.00;;
4202;SDS011;2115;51.038;7.006;2023-07-28T07:45:45;657.80;;;443.43;;
4202;SDS011;2115;51.038;7.006;2023-07-28T07:48:12;657.30;;;465.50;;
4202;SDS011;2115;51.038;7.006;2023-07-28T07:50:37;649.87;;;434.23;;
4202;SDS011;2115;51.038;7.006;2023-07-28T07:53:03;654.33;;;413.40;;
4202;SDS011;2115;51.038;7.006;2023-07-28T07:55:29;652.30;;;426.47;;
4202;SDS011;2115;51.038;7.006;2023-07-28T07:57:56;651.53;;;420.97;;
4202;SDS011;2115;51.038;7.006;2023-07-28T08:00:22;647.83;;;423.83;;
4202;SDS011;2115;51.038;7.006;2023-07-28T08:02:48;647.10;;;426.97;;
4202;SDS011;2115;51.038;7.006;2023-07-28T08:05:14;642.50;;;427.57;;
4202;SDS011;2115;51.038;7.006;2023-07-28T08:07:40;650.07;;;420.07;;
4202;SDS011;2115;51.038;7.006;2023-07-28T08:10:05;649.57;;;428.63;;
4202;SDS011;2115;51.038;7.006;2023-07-28T08:12:31;639.63;;;413.67;;
4202;SDS011;2115;51.038;7.006;2023-07-28T08:14:57;651.07;;;416.27;;
4202;SDS011;2115;51.038;7.006;2023-07-28T08:17:23;645.20;;;411.10;;
4202;SDS011;2115;51.038;7.006;2023-07-28T08:19:48;639.43;;;383.70;;
4202;SDS011;2115;51.038;7.006;2023-07-28T08:22:13;625.23;;;351.33;;
4202;SDS011;2115;51.038;7.006;2023-07-28T08:24:39;632.77;;;361.13;;
4202;SDS011;2115;51.038;7.006;2023-07-28T08:27:04;637.00;;;370.57;;
4202;SDS011;2115;51.038;7.006;2023-07-28T08:29:30;647.73;;;395.40;;
4202;SDS011;2115;51.038;7.006;2023-07-28T08:31:55;639.77;;;387.20;;
4202;SDS011;2115;51.038;7.006;2023-07-28T08:34:20;631.17;;;358.27;;
4202;SDS011;2115;51.038;7.006;2023-07-28T08:36:46;630.67;;;374.80;;
4202;SDS011;2115;51.038;7.006;2023-07-28T08:39:11;651.50;;;383.57;;
4202;SDS011;2115;51.038;7.006;2023-07-28T08:41:37;652.03;;;396.90;;
4202;SDS011;2115;51.038;7.006;2023-07-28T08:44:02;654.80;;;391.63;;
4202;SDS011;2115;51.038;7.006;2023-07-28T08:46:28;638.57;;;364.73;;
4202;SDS011;2115;51.038;7.006;2023-07-28T08:48:53;646.60;;;376.60;;
4202;SDS011;2115;51.038;7.006;2023-07-28T08:51:21;639.40;;;382.80;;
4202;SDS011;2115;51.038;7.006;2023-07-28T08:53:48;651.40;;;386.10;;
4202;SDS011;2115;51.038;7.006;2023-07-28T08:56:13;642.00;;;371.73;;
4202;SDS011;2115;51.038;7.006;2023-07-28T08:58:40;639.60;;;375.20;;
4202;SDS011;2115;51.038;7.006;2023-07-28T09:01:05;654.70;;;353.13;;
4202;SDS011;2115;51.038;7.006;2023-07-28T09:03:31;657.63;;;383.83;;
4202;SDS011;2115;51.038;7.006;2023-07-28T09:05:59;671.10;;;411.30;;
4202;SDS011;2115;51.038;7.006;2023-07-28T09:08:26;657.63;;;393.00;;
4202;SDS011;2115;51.038;7.006;2023-07-28T09:10:51;740.45;;;434.20;;
4202;SDS011;2115;51.038;7.006;2023-07-28T09:13:17;682.90;;;427.93;;
4202;SDS011;2115;51.038;7.006;2023-07-28T09:15:43;692.73;;;449.77;;
4202;SDS011;2115;51.038;7.006;2023-07-28T09:18:10;697.90;;;466.80;;
4202;SDS011;2115;51.038;7.006;2023-07-28T09:20:37;692.47;;;463.57;;
4202;SDS011;2115;51.038;7.006;2023-07-28T09:23:04;698.57;;;464.20;;
4202;SDS011;2115;51.038;7.006;2023-07-28T09:25:30;748.57;;;472.83;;
4202;SDS011;2115;51.038;7.006;2023-07-28T09:27:57;705.43;;;508.27;;
4202;SDS011;2115;51.038;7.006;2023-07-28T09:30:23;702.60;;;499.60;;
4202;SDS011;2115;51.038;7.006;2023-07-28T09:32:51;715.03;;;527.33;;
4202;SDS011;2115;51.038;7.006;2023-07-28T09:35:17;708.90;;;517.13;;
4202;SDS011;2115;51.038;7.006;2023-07-28T09:37:45;705.50;;;492.93;;
4202;SDS011;2115;51.038;7.006;2023-07-28T09:40:21;723.63;;;478.00;;
4202;SDS011;2115;51.038;7.006;2023-07-28T09:42:52;707.43;;;508.17;;
4202;SDS011;2115;51.038;7.006;2023-07-28T09:45:19;703.67;;;475.90;;
4202;SDS011;2115;51.038;7.006;2023-07-28T09:47:47;698.40;;;475.73;;
4202;SDS011;2115;51.038;7.006;2023-07-28T09:50:14;709.90;;;491.53;;
4202;SDS011;2115;51.038;7.006;2023-07-28T09:52:49;698.97;;;463.83;;
4202;SDS011;2115;51.038;7.006;2023-07-28T09:55:15;702.23;;;465.03;;
4202;SDS011;2115;51.038;7.006;2023-07-28T09:57:45;694.37;;;467.43;;
4202;SDS011;2115;51.038;7.006;2023-07-28T10:00:12;690.50;;;466.57;;
4202;SDS011;2115;51.038;7.006;2023-07-28T10:02:41;694.67;;;470.03;;
4202;SDS011;2115;51.038;7.006;2023-07-28T10:05:14;695.30;;;458.73;;
4202;SDS011;2115;51.038;7.006;2023-07-28T10:07:59;692.87;;;460.43;;
4202;SDS011;2115;51.038;7.006;2023-07-28T10:10:28;699.87;;;496.93;;
4202;SDS011;2115;51.038;7.006;2023-07-28T10:12:57;695.13;;;487.07;;
4202;SDS011;2115;51.038;7.006;2023-07-28T10:15:27;689.33;;;487.90;;
4202;SDS011;2115;51.038;7.006;2023-07-28T10:17:58;702.80;;;494.07;;
4202;SDS011;2115;51.038;7.006;2023-07-28T10:20:36;695.77;;;505.83;;
4202;SDS011;2115;51.038;7.006;2023-07-28T10:25:40;701.83;;;515.20;;
4202;SDS011;2115;51.038;7.006;2023-07-28T10:30:59;730.43;;;562.43;;
4202;SDS011;2115;51.038;7.006;2023-07-28T10:35:54;711.90;;;552.67;;
4202;SDS011;2115;51.038;7.006;2023-07-28T10:38:33;707.33;;;537.47;;
4202;SDS011;2115;51.038;7.006;2023-07-28T10:41:14;738.03;;;556.60;;
4202;SDS011;2115;51.038;7.006;2023-07-28T10:44:00;715.63;;;563.33;;
4202;SDS011;2115;51.038;7.006;2023-07-28T10:46:26;716.20;;;539.90;;
4202;SDS011;2115;51.038;7.006;2023-07-28T10:48:52;719.97;;;545.53;;
4202;SDS011;2115;51.038;7.006;2023-07-28T10:51:25;729.03;;;535.70;;
4202;SDS011;2115;51.038;7.006;2023-07-28T10:53:55;700.83;;;506.90;;
4202;SDS011;2115;51.038;7.006;2023-07-28T10:56:21;696.70;;;475.13;;
4202;SDS011;2115;51.038;7.006;2023-07-28T10:58:56;694.20;;;457.27;;
4202;SDS011;2115;51.038;7.006;2023-07-28T11:01:35;683.27;;;446.80;;
4202;SDS011;2115;51.038;7.006;2023-07-28T11:04:07;696.97;;;479.97;;
4202;SDS011;2115;51.038;7.006;2023-07-28T11:06:34;697.47;;;494.97;;
4202;SDS011;2115;51.038;7.006;2023-07-28T11:08:59;696.40;;;502.80;;
4202;SDS011;2115;51.038;7.006;2023-07-28T11:11:24;712.00;;;534.40;;
4202;SDS011;2115;51.038;7.006;2023-07-28T11:13:50;711.50;;;522.80;;
4202;SDS011;2115;51.038;7.006;2023-07-28T11:16:15;699.10;;;514.00;;
4202;SDS011;2115;51.038;7.006;2023-07-28T11:18:40;705.40;;;526.00;;
4202;SDS011;2115;51.038;7.006;2023-07-28T11:21:06;705.43;;;538.20;;
4202;SDS011;2115;51.038;7.006;2023-07-28T11:23:31;710.57;;;550.47;;
4202;SDS011;2115;51.038;7.006;2023-07-28T11:25:58;733.00;;;595.67;;
4202;SDS011;2115;51.038;7.006;2023-07-28T11:28:23;714.37;;;583.50;;
4202;SDS011;2115;51.038;7.006;2023-07-28T11:30:50;740.07;;;653.47;;
4202;SDS011;2115;51.038;7.006;2023-07-28T11:33:15;726.57;;;630.73;;
4202;SDS011;2115;51.038;7.006;2023-07-28T11:35:43;743.27;;;636.90;;
4202;SDS011;2115;51.038;7.006;2023-07-28T11:38:09;765.63;;;682.90;;
4202;SDS011;2115;51.038;7.006;2023-07-28T11:40:35;752.20;;;667.57;;
4202;SDS011;2115;51.038;7.006;2023-07-28T11:43:01;756.77;;;673.87;;
4202;SDS011;2115;51.038;7.006;2023-07-28T11:45:28;737.47;;;649.73;;
4202;SDS011;2115;51.038;7.006;2023-07-28T11:47:55;742.40;;;651.70;;
4202;SDS011;2115;51.038;7.006;2023-07-28T11:50:22;733.80;;;647.13;;
4202;SDS011;2115;51.038;7.006;2023-07-28T11:52:50;754.67;;;672.37;;
4202;SDS011;2115;51.038;7.006;2023-07-28T11:55:16;757.13;;;674.73;;
4202;SDS011;2115;51.038;7.006;2023-07-28T11:57:42;763.17;;;681.07;;
4202;SDS011;2115;51.038;7.006;2023-07-28T12:00:08;761.20;;;678.77;;
4202;SDS011;2115;51.038;7.006;2023-07-28T12:02:37;764.97;;;682.77;;
4202;SDS011;2115;51.038;7.006;2023-07-28T12:05:03;748.23;;;666.43;;
4202;SDS011;2115;51.038;7.006;2023-07-28T12:07:37;746.73;;;665.03;;
4202;SDS011;2115;51.038;7.006;2023-07-28T12:10:03;747.60;;;663.87;;
4202;SDS011;2115;51.038;7.006;2023-07-28T12:12:31;737.83;;;651.47;;
4202;SDS011;2115;51.038;7.006;2023-07-28T12:15:17;734.20;;;646.70;;
4202;SDS011;2115;51.038;7.006;2023-07-28T12:18:00;736.63;;;639.47;;
4202;SDS011;2115;51.038;7.006;2023-07-28T12:20:27;734.67;;;629.33;;
4202;SDS011;2115;51.038;7.006;2023-07-28T12:22:58;741.17;;;598.37;;
4202;SDS011;2115;51.038;7.006;2023-07-28T12:25:23;729.13;;;614.27;;
4202;SDS011;2115;51.038;7.006;2023-07-28T12:27:49;714.83;;;578.63;;
4202;SDS011;2115;51.038;7.006;2023-07-28T12:30:14;733.13;;;583.40;;
4202;SDS011;2115;51.038;7.006;2023-07-28T12:32:39;715.07;;;564.70;;
4202;SDS011;2115;51.038;7.006;2023-07-28T12:35:05;718.23;;;574.37;;
4202;SDS011;2115;51.038;7.006;2023-07-28T12:37:31;722.13;;;571.40;;
4202;SDS011;2115;51.038;7.006;2023-07-28T12:39:56;724.13;;;563.63;;
4202;SDS011;2115;51.038;7.006;2023-07-28T12:42:21;722.00;;;572.50;;
4202;SDS011;2115;51.038;7.006;2023-07-28T12:44:47;716.50;;;564.07;;
4202;SDS011;2115;51.038;7.006;2023-07-28T12:47:12;716.87;;;568.23;;
4202;SDS011;2115;51.038;7.006;2023-07-28T12:49:37;716.47;;;561.70;;
4202;SDS011;2115;51.038;7.006;2023-07-28T12:52:04;744.57;;;591.80;;
4202;SDS011;2115;51.038;7.006;2023-07-28T12:54:34;717.20;;;557.87;;
4202;SDS011;2115;51.038;7.006;2023-07-28T12:56:59;713.53;;;571.43;;
4202;SDS011;2115;51.038;7.006;2023-07-28T12:59:26;721.07;;;566.80;;
4202;SDS011;2115;51.038;7.006;2023-07-28T13:01:52;733.47;;;589.50;;
4202;SDS011;2115;51.038;7.006;2023-07-28T13:04:17;721.97;;;573.77;;
4202;SDS011;2115;51.038;7.006;2023-07-28T13:06:43;721.93;;;579.23;;
4202;SDS011;2115;51.038;7.006;2023-07-28T13:09:08;725.40;;;575.30;;
4202;SDS011;2115;51.038;7.006;2023-07-28T13:11:34;725.97;;;574.67;;
4202;SDS011;2115;51.038;7.006;2023-07-28T13:14:00;717.00;;;591.47;;
4202;SDS011;2115;51.038;7.006;2023-07-28T13:16:25;717.30;;;583.57;;
4202;SDS011;2115;51.038;7.006;2023-07-28T13:18:51;730.63;;;601.30;;
4202;SDS011;2115;51.038;7.006;2023-07-28T13:21:17;722.77;;;593.23;;
4202;SDS011;2115;51.038;7.006;2023-07-28T13:23:43;727.03;;;603.00;;
4202;SDS011;2115;51.038;7.006;2023-07-28T13:26:08;721.80;;;585.40;;
4202;SDS011;2115;51.038;7.006;2023-07-28T13:28:33;719.93;;;588.40;;
4202;SDS011;2115;51.038;7.006;2023-07-28T13:31:02;713.10;;;576.67;;
4202;SDS011;2115;51.038;7.006;2023-07-28T13:33:28;727.57;;;596.80;;
4202;SDS011;2115;51.038;7.006;2023-07-28T13:35:53;727.87;;;588.83;;
4202;SDS011;2115;51.038;7.006;2023-07-28T13:38:19;716.20;;;590.90;;
4202;SDS011;2115;51.038;7.006;2023-07-28T13:40:44;724.20;;;597.60;;
4202;SDS011;2115;51.038;7.006;2023-07-28T13:43:09;721.23;;;608.00;;
4202;SDS011;2115;51.038;7.006;2023-07-28T13:45:35;724.83;;;604.03;;
4202;SDS011;2115;51.038;7.006;2023-07-28T13:48:00;718.27;;;602.33;;
4202;SDS011;2115;51.038;7.006;2023-07-28T13:50:25;723.93;;;630.83;;
4202;SDS011;2115;51.038;7.006;2023-07-28T13:52:51;723.03;;;622.77;;
4202;SDS011;2115;51.038;7.006;2023-07-28T13:55:16;720.87;;;606.17;;
4202;SDS011;2115;51.038;7.006;2023-07-28T13:57:42;733.73;;;649.97;;
4202;SDS011;2115;51.038;7.006;2023-07-28T14:00:08;757.20;;;674.93;;
4202;SDS011;2115;51.038;7.006;2023-07-28T14:02:35;751.60;;;669.93;;
4202;SDS011;2115;51.038;7.006;2023-07-28T14:05:01;756.47;;;674.37;;
4202;SDS011;2115;51.038;7.006;2023-07-28T14:07:26;742.60;;;659.10;;
4202;SDS011;2115;51.038;7.006;2023-07-28T14:09:52;746.30;;;650.80;;
4202;SDS011;2115;51.038;7.006;2023-07-28T14:12:17;736.33;;;617.00;;
4202;SDS011;2115;51.038;7.006;2023-07-28T14:14:43;722.23;;;621.93;;
4202;SDS011;2115;51.038;7.006;2023-07-28T14:17:09;724.60;;;598.50;;
4202;SDS011;2115;51.038;7.006;2023-07-28T14:19:40;745.53;;;620.53;;
4202;SDS011;2115;51.038;7.006;2023-07-28T14:22:05;724.37;;;628.70;;
4202;SDS011;2115;51.038;7.006;2023-07-28T14:24:31;734.43;;;636.27;;
4202;SDS011;2115;51.038;7.006;2023-07-28T14:26:56;732.03;;;638.60;;
4202;SDS011;2115;51.038;7.006;2023-07-28T14:29:21;731.73;;;634.60;;
4202;SDS011;2115;51.038;7.006;2023-07-28T14:31:47;737.63;;;637.50;;
4202;SDS011;2115;51.038;7.006;2023-07-28T14:34:13;728.63;;;636.13;;
4202;SDS011;2115;51.038;7.006;2023-07-28T14:36:38;726.40;;;632.03;;
4202;SDS011;2115;51.038;7.006;2023-07-28T14:39:04;739.57;;;646.40;;
4202;SDS011;2115;51.038;7.006;2023-07-28T14:41:29;735.60;;;646.03;;
4202;SDS011;2115;51.038;7.006;2023-07-28T14:43:55;732.80;;;633.30;;
4202;SDS011;2115;51.038;7.006;2023-07-28T14:46:20;726.97;;;606.17;;
4202;SDS011;2115;51.038;7.006;2023-07-28T14:48:47;732.80;;;628.83;;
4202;SDS011;2115;51.038;7.006;2023-07-28T14:51:15;728.53;;;615.67;;
4202;SDS011;2115;51.038;7.006;2023-07-28T14:53:40;734.33;;;622.37;;
4202;SDS011;2115;51.038;7.006;2023-07-28T14:56:06;739.43;;;639.27;;
4202;SDS011;2115;51.038;7.006;2023-07-28T14:58:32;732.90;;;621.13;;
4202;SDS011;2115;51.038;7.006;2023-07-28T15:00:58;731.40;;;599.93;;
4202;SDS011;2115;51.038;7.006;2023-07-28T15:03:25;736.03;;;622.63;;
4202;SDS011;2115;51.038;7.006;2023-07-28T15:05:54;727.17;;;623.30;;
4202;SDS011;2115;51.038;7.006;2023-07-28T15:08:22;733.67;;;628.70;;
4202;SDS011;2115;51.038;7.006;2023-07-28T15:10:48;724.73;;;604.07;;
4202;SDS011;2115;51.038;7.006;2023-07-28T15:13:13;732.83;;;625.83;;
4202;SDS011;2115;51.038;7.006;2023-07-28T15:15:39;739.73;;;649.10;;
4202;SDS011;2115;51.038;7.006;2023-07-28T15:18:05;730.03;;;618.90;;
4202;SDS011;2115;51.038;7.006;2023-07-28T15:20:30;722.90;;;598.87;;
4202;SDS011;2115;51.038;7.006;2023-07-28T15:22:56;727.20;;;600.80;;
4202;SDS011;2115;51.038;7.006;2023-07-28T15:25:21;715.30;;;561.53;;
4202;SDS011;2115;51.038;7.006;2023-07-28T15:27:46;724.80;;;582.93;;
4202;SDS011;2115;51.038;7.006;2023-07-28T15:30:12;705.23;;;551.60;;
4202;SDS011;2115;51.038;7.006;2023-07-28T15:32:37;718.37;;;570.53;;
4202;SDS011;2115;51.038;7.006;2023-07-28T15:35:03;702.57;;;550.17;;
4202;SDS011;2115;51.038;7.006;2023-07-28T15:37:29;695.20;;;533.70;;
4202;SDS011;2115;51.038;7.006;2023-07-28T15:39:55;716.60;;;570.47;;
4202;SDS011;2115;51.038;7.006;2023-07-28T15:42:21;714.77;;;599.97;;
4202;SDS011;2115;51.038;7.006;2023-07-28T15:44:47;731.20;;;635.17;;
4202;SDS011;2115;51.038;7.006;2023-07-28T15:47:14;735.30;;;632.17;;
4202;SDS011;2115;51.038;7.006;2023-07-28T15:49:40;740.50;;;635.40;;
4202;SDS011;2115;51.038;7.006;2023-07-28T15:52:06;728.80;;;611.20;;
4202;SDS011;2115;51.038;7.006;2023-07-28T15:54:31;734.97;;;626.80;;
4202;SDS011;2115;51.038;7.006;2023-07-28T15:56:57;730.80;;;614.90;;
4202;SDS011;2115;51.038;7.006;2023-07-28T15:59:22;730.43;;;639.97;;
4202;SDS011;2115;51.038;7.006;2023-07-28T16:01:47;727.63;;;628.37;;
4202;SDS011;2115;51.038;7.006;2023-07-28T16:04:13;730.97;;;626.63;;
4202;SDS011;2115;51.038;7.006;2023-07-28T16:06:38;730.73;;;611.37;;
4202;SDS011;2115;51.038;7.006;2023-07-28T16:09:04;732.37;;;611.20;;
4202;SDS011;2115;51.038;7.006;2023-07-28T16:11:29;732.60;;;614.13;;
4202;SDS011;2115;51.038;7.006;2023-07-28T16:13:55;734.87;;;602.60;;
4202;SDS011;2115;51.038;7.006;2023-07-28T16:16:21;727.57;;;594.33;;
4202;SDS011;2115;51.038;7.006;2023-07-28T16:18:46;702.97;;;568.90;;
4202;SDS011;2115;51.038;7.006;2023-07-28T16:21:12;693.10;;;547.63;;
4202;SDS011;2115;51.038;7.006;2023-07-28T16:23:37;684.07;;;535.67;;
4202;SDS011;2115;51.038;7.006;2023-07-28T16:26:02;713.23;;;513.57;;
4202;SDS011;2115;51.038;7.006;2023-07-28T16:28:28;680.77;;;478.33;;
4202;SDS011;2115;51.038;7.006;2023-07-28T16:30:53;702.67;;;517.33;;
4202;SDS011;2115;51.038;7.006;2023-07-28T16:33:19;693.57;;;497.33;;
4202;SDS011;2115;51.038;7.006;2023-07-28T16:35:44;703.50;;;528.80;;
4202;SDS011;2115;51.038;7.006;2023-07-28T16:38:10;727.53;;;554.90;;
4202;SDS011;2115;51.038;7.006;2023-07-28T16:40:35;715.73;;;588.70;;
4202;SDS011;2115;51.038;7.006;2023-07-28T16:43:00;741.80;;;607.50;;
4202;SDS011;2115;51.038;7.006;2023-07-28T16:45:26;727.23;;;609.27;;
4202;SDS011;2115;51.038;7.006;2023-07-28T16:47:51;718.80;;;609.83;;
4202;SDS011;2115;51.038;7.006;2023-07-28T16:50:17;723.53;;;622.57;;
4202;SDS011;2115;51.038;7.006;2023-07-28T16:52:42;726.40;;;615.63;;
4202;SDS011;2115;51.038;7.006;2023-07-28T16:55:08;720.43;;;591.93;;
4202;SDS011;2115;51.038;7.006;2023-07-28T16:57:34;723.73;;;610.80;;
4202;SDS011;2115;51.038;7.006;2023-07-28T16:59:59;729.53;;;620.10;;
4202;SDS011;2115;51.038;7.006;2023-07-28T17:02:25;728.87;;;628.93;;
4202;SDS011;2115;51.038;7.006;2023-07-28T17:04:50;726.43;;;636.30;;
4202;SDS011;2115;51.038;7.006;2023-07-28T17:07:17;752.60;;;671.00;;
4202;SDS011;2115;51.038;7.006;2023-07-28T17:09:42;791.20;;;707.20;;
4202;SDS011;2115;51.038;7.006;2023-07-28T17:12:07;829.43;;;745.47;;
4202;SDS011;2115;51.038;7.006;2023-07-28T17:14:33;848.17;;;764.87;;
4202;SDS011;2115;51.038;7.006;2023-07-28T17:16:58;965.87;;;876.43;;
4202;SDS011;2115;51.038;7.006;2023-07-28T17:19:24;1026.67;;;931.73;;
4202;SDS011;2115;51.038;7.006;2023-07-28T17:21:49;1021.47;;;928.07;;
4202;SDS011;2115;51.038;7.006;2023-07-28T17:24:15;957.70;;;871.40;;
4202;SDS011;2115;51.038;7.006;2023-07-28T17:26:40;954.57;;;867.17;;
4202;SDS011;2115;51.038;7.006;2023-07-28T17:29:05;924.57;;;840.17;;
4202;SDS011;2115;51.038;7.006;2023-07-28T17:31:31;974.57;;;887.07;;
4202;SDS011;2115;51.038;7.006;2023-07-28T17:33:58;1038.03;;;947.73;;
4202;SDS011;2115;51.038;7.006;2023-07-28T17:36:24;984.73;;;897.97;;
4202;SDS011;2115;51.038;7.006;2023-07-28T17:38:49;1004.27;;;916.87;;
4202;SDS011;2115;51.038;7.006;2023-07-28T17:41:15;1012.60;;;924.07;;
4202;SDS011;2115;51.038;7.006;2023-07-28T17:43:41;1018.80;;;928.70;;
4202;SDS011;2115;51.038;7.006;2023-07-28T17:46:08;1003.97;;;915.10;;
4202;SDS011;2115;51.038;7.006;2023-07-28T17:48:33;1015.80;;;926.30;;
4202;SDS011;2115;51.038;7.006;2023-07-28T17:50:59;1008.97;;;919.97;;
4202;SDS011;2115;51.038;7.006;2023-07-28T17:53:24;1017.50;;;927.37;;
4202;SDS011;2115;51.038;7.006;2023-07-28T17:55:50;1016.87;;;927.07;;
4202;SDS011;2115;51.038;7.006;2023-07-28T17:58:15;1008.13;;;917.97;;
4202;SDS011;2115;51.038;7.006;2023-07-28T18:00:40;1009.03;;;917.93;;
4202;SDS011;2115;51.038;7.006;2023-07-28T18:03:06;999.60;;;907.93;;
4202;SDS011;2115;51.038;7.006;2023-07-28T18:05:32;998.77;;;906.57;;
4202;SDS011;2115;51.038;7.006;2023-07-28T18:07:57;986.90;;;892.43;;
4202;SDS011;2115;51.038;7.006;2023-07-28T18:10:23;1004.77;;;910.47;;
4202;SDS011;2115;51.038;7.006;2023-07-28T18:12:48;999.37;;;905.20;;
4202;SDS011;2115;51.038;7.006;2023-07-28T18:15:14;979.13;;;884.93;;
4202;SDS011;2115;51.038;7.006;2023-07-28T18:17:40;928.37;;;837.10;;
4202;SDS011;2115;51.038;7.006;2023-07-28T18:20:05;904.40;;;813.93;;
4202;SDS011;2115;51.038;7.006;2023-07-28T18:22:31;836.60;;;748.43;;
4202;SDS011;2115;51.038;7.006;2023-07-28T18:24:57;841.30;;;753.43;;
4202;SDS011;2115;51.038;7.006;2023-07-28T18:27:23;846.60;;;757.93;;
4202;SDS011;2115;51.038;7.006;2023-07-28T18:29:49;795.27;;;708.27;;
4202;SDS011;2115;51.038;7.006;2023-07-28T18:32:15;792.10;;;705.00;;
4202;SDS011;2115;51.038;7.006;2023-07-28T18:34:40;798.70;;;712.23;;
4202;SDS011;2115;51.038;7.006;2023-07-28T18:37:06;802.60;;;716.00;;
4202;SDS011;2115;51.038;7.006;2023-07-28T18:39:31;769.87;;;663.23;;
4202;SDS011;2115;51.038;7.006;2023-07-28T18:41:59;792.07;;;705.47;;
4202;SDS011;2115;51.038;7.006;2023-07-28T18:44:25;770.00;;;679.87;;
4202;SDS011;2115;51.038;7.006;2023-07-28T18:46:50;761.13;;;652.77;;
4202;SDS011;2115;51.038;7.006;2023-07-28T18:49:16;777.43;;;690.30;;
4202;SDS011;2115;51.038;7.006;2023-07-28T18:51:41;760.40;;;656.70;;
4202;SDS011;2115;51.038;7.006;2023-07-28T18:54:07;779.37;;;675.20;;
4202;SDS011;2115;51.038;7.006;2023-07-28T18:56:32;755.70;;;659.47;;
4202;SDS011;2115;51.038;7.006;2023-07-28T18:58:57;757.40;;;646.00;;
4202;SDS011;2115;51.038;7.006;2023-07-28T19:01:23;757.33;;;667.67;;
4202;SDS011;2115;51.038;7.006;2023-07-28T19:03:48;753.13;;;656.13;;
4202;SDS011;2115;51.038;7.006;2023-07-28T19:06:14;752.83;;;654.07;;
4202;SDS011;2115;51.038;7.006;2023-07-28T19:08:43;747.20;;;616.77;;
4202;SDS011;2115;51.038;7.006;2023-07-28T19:11:09;739.87;;;608.67;;
4202;SDS011;2115;51.038;7.006;2023-07-28T19:13:35;755.70;;;666.67;;
4202;SDS011;2115;51.038;7.006;2023-07-28T19:16:00;765.70;;;634.13;;
4202;SDS011;2115;51.038;7.006;2023-07-28T19:18:25;746.77;;;629.43;;
4202;SDS011;2115;51.038;7.006;2023-07-28T19:20:51;755.83;;;664.00;;
4202;SDS011;2115;51.038;7.006;2023-07-28T19:23:16;749.07;;;653.33;;
4202;SDS011;2115;51.038;7.006;2023-07-28T19:25:42;721.73;;;581.43;;
4202;SDS011;2115;51.038;7.006;2023-07-28T19:28:07;732.53;;;591.40;;
4202;SDS011;2115;51.038;7.006;2023-07-28T19:30:33;735.40;;;627.70;;
4202;SDS011;2115;51.038;7.006;2023-07-28T19:32:58;735.27;;;606.80;;
4202;SDS011;2115;51.038;7.006;2023-07-28T19:35:23;712.07;;;566.17;;
4202;SDS011;2115;51.038;7.006;2023-07-28T19:37:49;711.60;;;594.03;;
4202;SDS011;2115;51.038;7.006;2023-07-28T19:40:14;716.33;;;581.93;;
4202;SDS011;2115;51.038;7.006;2023-07-28T19:42:41;706.17;;;565.00;;
4202;SDS011;2115;51.038;7.006;2023-07-28T19:45:07;703.63;;;533.53;;
4202;SDS011;2115;51.038;7.006;2023-07-28T19:47:32;692.63;;;527.17;;
4202;SDS011;2115;51.038;7.006;2023-07-28T19:50:01;704.90;;;544.83;;
4202;SDS011;2115;51.038;7.006;2023-07-28T19:52:28;697.47;;;544.23;;
4202;SDS011;2115;51.038;7.006;2023-07-28T19:54:53;722.90;;;640.70;;
4202;SDS011;2115;51.038;7.006;2023-07-28T19:57:19;697.73;;;564.30;;
4202;SDS011;2115;51.038;7.006;2023-07-28T19:59:44;693.70;;;524.83;;
4202;SDS011;2115;51.038;7.006;2023-07-28T20:02:10;694.43;;;560.27;;
4202;SDS011;2115;51.038;7.006;2023-07-28T20:04:35;696.17;;;549.77;;
4202;SDS011;2115;51.038;7.006;2023-07-28T20:07:00;712.47;;;589.20;;
4202;SDS011;2115;51.038;7.006;2023-07-28T20:09:26;756.13;;;674.63;;
4202;SDS011;2115;51.038;7.006;2023-07-28T20:11:54;744.73;;;664.43;;
4202;SDS011;2115;51.038;7.006;2023-07-28T20:14:20;805.40;;;722.23;;
4202;SDS011;2115;51.038;7.006;2023-07-28T20:16:46;805.43;;;722.67;;
4202;SDS011;2115;51.038;7.006;2023-07-28T20:19:11;823.60;;;740.33;;
4202;SDS011;2115;51.038;7.006;2023-07-28T20:21:36;796.00;;;713.20;;
4202;SDS011;2115;51.038;7.006;2023-07-28T20:24:02;707.57;;;608.90;;
4202;SDS011;2115;51.038;7.006;2023-07-28T20:26:27;696.20;;;553.40;;
4202;SDS011;2115;51.038;7.006;2023-07-28T20:28:53;686.10;;;498.40;;
4202;SDS011;2115;51.038;7.006;2023-07-28T20:31:18;687.30;;;537.03;;
4202;SDS011;2115;51.038;7.006;2023-07-28T20:33:46;695.90;;;536.67;;
4202;SDS011;2115;51.038;7.006;2023-07-28T20:36:11;685.37;;;506.73;;
4202;SDS011;2115;51.038;7.006;2023-07-28T20:38:38;683.87;;;505.23;;
4202;SDS011;2115;51.038;7.006;2023-07-28T20:41:03;683.47;;;503.70;;
4202;SDS011;2115;51.038;7.006;2023-07-28T20:43:29;678.60;;;490.33;;
4202;SDS011;2115;51.038;7.006;2023-07-28T20:45:56;692.47;;;516.53;;
4202;SDS011;2115;51.038;7.006;2023-07-28T20:48:21;686.80;;;512.40;;
4202;SDS011;2115;51.038;7.006;2023-07-28T20:50:47;691.10;;;530.07;;
4202;SDS011;2115;51.038;7.006;2023-07-28T20:53:12;680.60;;;504.83;;
4202;SDS011;2115;51.038;7.006;2023-07-28T20:55:37;689.27;;;558.97;;
4202;SDS011;2115;51.038;7.006;2023-07-28T20:58:03;684.10;;;522.80;;
4202;SDS011;2115;51.038;7.006;2023-07-28T21:00:28;685.27;;;538.37;;
4202;SDS011;2115;51.038;7.006;2023-07-28T21:02:54;692.97;;;563.50;;
4202;SDS011;2115;51.038;7.006;2023-07-28T21:05:19;809.77;;;727.20;;
4202;SDS011;2115;51.038;7.006;2023-07-28T21:07:45;829.43;;;744.97;;